sensor_id;sensor_type;location;lat;lon;timestamp;temperature;humidity
12684;DHT22;6406;59.312;18.058;2024-03-02T00:00:50;4.00;99.90
12684;DHT22;6406;59.312;18.058;2024-03-02T00:03:18;4.00;99.90
12684;DHT22;6406;59.312;18.058;2024-03-02T00:05:51;4.00;99.90
12684;DHT22;6406;59.312;18.058;2024-03-02T00:08:24;4.00;99.90
12684;DHT22;6406;59.312;18.058;2024-03-02T00:10:57;4.00;99.90
12684;DHT22;6406;59.312;18.058;2024-03-02T00:13:25;4.00;99.90
12684;DHT22;6406;59.312;18.058;2024-03-02T00:15:54;3.90;99.90
12684;DHT22;6406;59.312;18.058;2024-03-02T00:18:25;3.90;99.90
12684;DHT22;6406;59.312;18.058;2024-03-02T00:20:57;3.80;99.90
12684;DHT22;6406;59.312;18.058;2024-03-02T00:23:28;3.80;99.90
12684;DHT22;6406;59.312;18.058;2024-03-02T00:25:56;3.80;99.90
12684;DHT22;6406;59.312;18.058;2024-03-02T00:28:24;3.80;99.90
12684;DHT22;6406;59.312;18.058;2024-03-02T00:30:57;3.80;99.90
12684;DHT22;6406;59.312;18.058;2024-03-02T00:33:27;3.90;99.90
12684;DHT22;6406;59.312;18.058;2024-03-02T00:35:56;3.80;99.90
12684;DHT22;6406;59.312;18.058;2024-03-02T00:38:25;3.90;99.90
12684;DHT22;6406;59.312;18.058;2024-03-02T00:40:53;3.80;99.90
12684;DHT22;6406;59.312;18.058;2024-03-02T00:43:42;3.80;99.90
12684;DHT22;6406;59.312;18.058;2024-03-02T00:46:11;3.80;99.90
12684;DHT22;6406;59.312;18.058;2024-03-02T00:48:43;3.80;99.90
12684;DHT22;6406;59.312;18.058;2024-03-02T00:51:16;3.80;99.90
12684;DHT22;6406;59.312;18.058;2024-03-02T00:53:43;3.80;99.90
12684;DHT22;6406;59.312;18.058;2024-03-02T00:56:11;0.50;99.90
12684;DHT22;6406;59.312;18.058;2024-03-02T00:58:39;3.90;99.90
12684;DHT22;6406;59.312;18.058;2024-03-02T01:01:07;3.60;99.90
12684;DHT22;6406;59.312;18.058;2024-03-02T01:03:35;3.70;99.90
12684;DHT22;6406;59.312;18.058;2024-03-02T01:06:04;3.60;99.90
12684;DHT22;6406;59.312;18.058;2024-03-02T01:08:34;3.70;99.90
12684;DHT22;6406;59.312;18.058;2024-03-02T01:11:02;4.40;99.90
12684;DHT22;6406;59.312;18.058;2024-03-02T01:13:29;3.60;99.90
12684;DHT22;6406;59.312;18.058;2024-03-02T01:15:56;3.60;99.90
12684;DHT22;6406;59.312;18.058;2024-03-02T01:18:24;3.60;99.90
12684;DHT22;6406;59.312;18.058;2024-03-02T01:20:51;3.60;99.90
12684;DHT22;6406;59.312;18.058;2024-03-02T01:23:21;3.60;99.90
12684;DHT22;6406;59.312;18.058;2024-03-02T01:25:50;3.50;99.90
12684;DHT22;6406;59.312;18.058;2024-03-02T01:28:18;3.50;99.90
12684;DHT22;6406;59.312;18.058;2024-03-02T01:30:46;3.50;99.90
12684;DHT22;6406;59.312;18.058;2024-03-02T01:33:13;3.50;99.90
12684;DHT22;6406;59.312;18.058;2024-03-02T01:35:41;3.50;99.90
12684;DHT22;6406;59.312;18.058;2024-03-02T01:38:08;3.60;99.90
12684;DHT22;6406;59.312;18.058;2024-03-02T01:40:37;5.30;99.90
12684;DHT22;6406;59.312;18.058;2024-03-02T01:43:06;3.70;99.90
12684;DHT22;6406;59.312;18.058;2024-03-02T01:45:34;3.50;99.90
12684;DHT22;6406;59.312;18.058;2024-03-02T01:48:05;3.50;99.90
12684;DHT22;6406;59.312;18.058;2024-03-02T01:50:33;3.70;99.90
12684;DHT22;6406;59.312;18.058;2024-03-02T01:53:00;3.50;99.90
12684;DHT22;6406;59.312;18.058;2024-03-02T01:55:29;3.50;99.90
12684;DHT22;6406;59.312;18.058;2024-03-02T01:57:56;3.30;99.90
12684;DHT22;6406;59.312;18.058;2024-03-02T02:00:26;3.50;99.90
12684;DHT22;6406;59.312;18.058;2024-03-02T02:02:54;3.50;99.90
12684;DHT22;6406;59.312;18.058;2024-03-02T02:05:23;3.50;99.90
12684;DHT22;6406;59.312;18.058;2024-03-02T02:07:50;3.50;99.90
12684;DHT22;6406;59.312;18.058;2024-03-02T02:10:18;3.40;99.90
12684;DHT22;6406;59.312;18.058;2024-03-02T02:12:45;3.60;99.90
12684;DHT22;6406;59.312;18.058;2024-03-02T02:15:27;3.70;99.90
12684;DHT22;6406;59.312;18.058;2024-03-02T02:17:54;3.50;99.90
12684;DHT22;6406;59.312;18.058;2024-03-02T02:20:22;3.50;99.90
12684;DHT22;6406;59.312;18.058;2024-03-02T02:22:58;3.50;99.90
12684;DHT22;6406;59.312;18.058;2024-03-02T02:25:25;3.50;99.90
12684;DHT22;6406;59.312;18.058;2024-03-02T02:27:52;3.50;99.90
12684;DHT22;6406;59.312;18.058;2024-03-02T02:30:21;3.50;99.90
12684;DHT22;6406;59.312;18.058;2024-03-02T02:32:49;3.50;99.90
12684;DHT22;6406;59.312;18.058;2024-03-02T02:35:16;3.70;99.90
12684;DHT22;6406;59.312;18.058;2024-03-02T02:37:44;3.40;99.90
12684;DHT22;6406;59.312;18.058;2024-03-02T02:40:14;3.50;99.90
12684;DHT22;6406;59.312;18.058;2024-03-02T02:42:41;3.50;99.90
12684;DHT22;6406;59.312;18.058;2024-03-02T02:45:09;3.50;99.90
12684;DHT22;6406;59.312;18.058;2024-03-02T02:47:36;3.40;99.90
12684;DHT22;6406;59.312;18.058;2024-03-02T02:50:06;3.50;99.90
12684;DHT22;6406;59.312;18.058;2024-03-02T02:52:34;3.50;99.90
12684;DHT22;6406;59.312;18.058;2024-03-02T02:55:03;3.50;99.90
12684;DHT22;6406;59.312;18.058;2024-03-02T02:57:33;3.40;99.90
12684;DHT22;6406;59.312;18.058;2024-03-02T03:00:04;3.40;99.90
12684;DHT22;6406;59.312;18.058;2024-03-02T03:02:37;3.50;99.90
12684;DHT22;6406;59.312;18.058;2024-03-02T03:05:05;3.50;99.90
12684;DHT22;6406;59.312;18.058;2024-03-02T03:07:33;3.50;99.90
12684;DHT22;6406;59.312;18.058;2024-03-02T03:10:02;4.30;99.90
12684;DHT22;6406;59.312;18.058;2024-03-02T03:12:30;3.50;99.90
12684;DHT22;6406;59.312;18.058;2024-03-02T03:14:59;3.60;99.90
12684;DHT22;6406;59.312;18.058;2024-03-02T03:17:26;3.50;99.90
12684;DHT22;6406;59.312;18.058;2024-03-02T03:19:54;3.50;99.90
12684;DHT22;6406;59.312;18.058;2024-03-02T03:22:21;3.50;99.90
12684;DHT22;6406;59.312;18.058;2024-03-02T03:24:49;3.50;99.90
12684;DHT22;6406;59.312;18.058;2024-03-02T03:27:16;3.50;99.90
12684;DHT22;6406;59.312;18.058;2024-03-02T03:29:43;3.60;99.90
12684;DHT22;6406;59.312;18.058;2024-03-02T03:32:12;3.50;99.90
12684;DHT22;6406;59.312;18.058;2024-03-02T03:34:39;3.50;99.90
12684;DHT22;6406;59.312;18.058;2024-03-02T03:37:07;3.50;99.90
12684;DHT22;6406;59.312;18.058;2024-03-02T03:39:35;4.20;99.90
12684;DHT22;6406;59.312;18.058;2024-03-02T03:42:03;1.40;99.90
12684;DHT22;6406;59.312;18.058;2024-03-02T03:44:30;3.50;99.90
12684;DHT22;6406;59.312;18.058;2024-03-02T03:46:58;3.50;99.90
12684;DHT22;6406;59.312;18.058;2024-03-02T03:49:28;3.30;99.90
12684;DHT22;6406;59.312;18.058;2024-03-02T03:51:55;3.40;99.90
12684;DHT22;6406;59.312;18.058;2024-03-02T03:54:22;1.50;99.90
12684;DHT22;6406;59.312;18.058;2024-03-02T03:56:50;3.40;99.90
12684;DHT22;6406;59.312;18.058;2024-03-02T03:59:17;3.40;99.90
12684;DHT22;6406;59.312;18.058;2024-03-02T04:01:44;3.40;99.90
12684;DHT22;6406;59.312;18.058;2024-03-02T04:04:11;3.40;99.90
12684;DHT22;6406;59.312;18.058;2024-03-02T04:06:40;2.80;99.90
12684;DHT22;6406;59.312;18.058;2024-03-02T04:09:07;3.40;99.90
12684;DHT22;6406;59.312;18.058;2024-03-02T04:11:34;3.40;99.90
12684;DHT22;6406;59.312;18.058;2024-03-02T04:14:02;3.40;99.90
12684;DHT22;6406;59.312;18.058;2024-03-02T04:16:32;3.40;99.90
12684;DHT22;6406;59.312;18.058;2024-03-02T04:18:59;1.70;99.90
12684;DHT22;6406;59.312;18.058;2024-03-02T04:21:26;3.40;99.90
12684;DHT22;6406;59.312;18.058;2024-03-02T04:23:55;3.30;99.90
12684;DHT22;6406;59.312;18.058;2024-03-02T04:26:24;3.50;99.90
12684;DHT22;6406;59.312;18.058;2024-03-02T04:28:51;3.40;99.90
12684;DHT22;6406;59.312;18.058;2024-03-02T04:31:19;3.40;99.90
12684;DHT22;6406;59.312;18.058;2024-03-02T04:33:46;3.50;99.90
12684;DHT22;6406;59.312;18.058;2024-03-02T04:36:14;3.50;99.90
12684;DHT22;6406;59.312;18.058;2024-03-02T04:38:41;3.40;99.90
12684;DHT22;6406;59.312;18.058;2024-03-02T04:41:09;3.40;99.90
12684;DHT22;6406;59.312;18.058;2024-03-02T04:43:37;3.30;99.90
12684;DHT22;6406;59.312;18.058;2024-03-02T04:46:05;3.20;99.90
12684;DHT22;6406;59.312;18.058;2024-03-02T04:48:32;3.30;99.90
12684;DHT22;6406;59.312;18.058;2024-03-02T04:51:00;3.20;99.90
12684;DHT22;6406;59.312;18.058;2024-03-02T04:53:27;2.90;99.90
12684;DHT22;6406;59.312;18.058;2024-03-02T04:55:54;3.20;99.90
12684;DHT22;6406;59.312;18.058;2024-03-02T04:58:54;3.30;99.90
12684;DHT22;6406;59.312;18.058;2024-03-02T05:01:22;3.20;99.90
12684;DHT22;6406;59.312;18.058;2024-03-02T05:03:49;3.20;99.90
12684;DHT22;6406;59.312;18.058;2024-03-02T05:06:16;3.30;99.90
12684;DHT22;6406;59.312;18.058;2024-03-02T05:08:43;3.30;99.90
12684;DHT22;6406;59.312;18.058;2024-03-02T05:11:11;3.30;99.90
12684;DHT22;6406;59.312;18.058;2024-03-02T05:14:17;3.20;99.90
12684;DHT22;6406;59.312;18.058;2024-03-02T05:16:44;3.20;99.90
12684;DHT22;6406;59.312;18.058;2024-03-02T05:19:11;3.20;99.90
12684;DHT22;6406;59.312;18.058;2024-03-02T05:21:39;3.20;99.90
12684;DHT22;6406;59.312;18.058;2024-03-02T05:24:06;3.20;99.90
12684;DHT22;6406;59.312;18.058;2024-03-02T05:26:33;3.20;99.90
12684;DHT22;6406;59.312;18.058;2024-03-02T05:29:00;3.20;99.90
12684;DHT22;6406;59.312;18.058;2024-03-02T05:31:30;3.20;99.90
12684;DHT22;6406;59.312;18.058;2024-03-02T05:33:57;3.30;99.90
12684;DHT22;6406;59.312;18.058;2024-03-02T05:36:25;3.30;99.90
12684;DHT22;6406;59.312;18.058;2024-03-02T05:38:52;3.30;99.90
12684;DHT22;6406;59.312;18.058;2024-03-02T05:41:19;3.20;99.90
12684;DHT22;6406;59.312;18.058;2024-03-02T05:43:46;3.20;99.90
12684;DHT22;6406;59.312;18.058;2024-03-02T05:46:14;3.30;99.90
12684;DHT22;6406;59.312;18.058;2024-03-02T05:48:42;3.30;99.90
12684;DHT22;6406;59.312;18.058;2024-03-02T05:51:09;3.30;99.90
12684;DHT22;6406;59.312;18.058;2024-03-02T05:53:36;3.20;99.90
12684;DHT22;6406;59.312;18.058;2024-03-02T05:56:05;3.30;99.90
12684;DHT22;6406;59.312;18.058;2024-03-02T05:58:32;3.30;99.90
12684;DHT22;6406;59.312;18.058;2024-03-02T06:01:15;3.40;99.90
12684;DHT22;6406;59.312;18.058;2024-03-02T06:03:45;3.40;99.90
12684;DHT22;6406;59.312;18.058;2024-03-02T06:06:12;3.40;99.90
12684;DHT22;6406;59.312;18.058;2024-03-02T06:08:39;3.40;99.90
12684;DHT22;6406;59.312;18.058;2024-03-02T06:11:06;3.50;99.90
12684;DHT22;6406;59.312;18.058;2024-03-02T06:13:34;3.50;99.90
12684;DHT22;6406;59.312;18.058;2024-03-02T06:16:01;3.40;99.90
12684;DHT22;6406;59.312;18.058;2024-03-02T06:18:29;3.40;99.90
12684;DHT22;6406;59.312;18.058;2024-03-02T06:20:57;3.50;99.90
12684;DHT22;6406;59.312;18.058;2024-03-02T06:23:24;3.60;99.90
12684;DHT22;6406;59.312;18.058;2024-03-02T06:25:52;3.60;99.90
12684;DHT22;6406;59.312;18.058;2024-03-02T06:28:19;3.70;99.90
12684;DHT22;6406;59.312;18.058;2024-03-02T06:30:46;3.80;99.90
12684;DHT22;6406;59.312;18.058;2024-03-02T06:33:13;3.70;99.90
12684;DHT22;6406;59.312;18.058;2024-03-02T06:35:40;3.80;99.90
12684;DHT22;6406;59.312;18.058;2024-03-02T06:38:09;3.80;99.90
12684;DHT22;6406;59.312;18.058;2024-03-02T06:40:36;3.80;99.90
12684;DHT22;6406;59.312;18.058;2024-03-02T06:43:04;3.80;99.90
12684;DHT22;6406;59.312;18.058;2024-03-02T06:45:31;3.90;99.90
12684;DHT22;6406;59.312;18.058;2024-03-02T06:48:00;3.90;99.90
12684;DHT22;6406;59.312;18.058;2024-03-02T06:50:27;3.90;99.90
12684;DHT22;6406;59.312;18.058;2024-03-02T06:52:54;3.90;99.90
12684;DHT22;6406;59.312;18.058;2024-03-02T06:55:24;3.90;99.90
12684;DHT22;6406;59.312;18.058;2024-03-02T06:57:51;3.80;99.90
12684;DHT22;6406;59.312;18.058;2024-03-02T07:00:19;4.00;99.90
12684;DHT22;6406;59.312;18.058;2024-03-02T07:02:47;4.00;99.90
12684;DHT22;6406;59.312;18.058;2024-03-02T07:05:14;4.00;99.90
12684;DHT22;6406;59.312;18.058;2024-03-02T07:07:42;4.00;99.90
12684;DHT22;6406;59.312;18.058;2024-03-02T07:10:09;4.00;99.90
12684;DHT22;6406;59.312;18.058;2024-03-02T07:12:38;4.10;99.90
12684;DHT22;6406;59.312;18.058;2024-03-02T07:15:06;4.10;99.90
12684;DHT22;6406;59.312;18.058;2024-03-02T07:17:50;4.10;99.90
12684;DHT22;6406;59.312;18.058;2024-03-02T07:20:18;4.20;99.90
12684;DHT22;6406;59.312;18.058;2024-03-02T07:22:45;4.20;99.90
12684;DHT22;6406;59.312;18.058;2024-03-02T07:25:12;4.20;99.90
12684;DHT22;6406;59.312;18.058;2024-03-02T07:27:41;4.20;99.90
12684;DHT22;6406;59.312;18.058;2024-03-02T07:30:13;4.30;99.90
12684;DHT22;6406;59.312;18.058;2024-03-02T07:32:42;4.40;99.90
12684;DHT22;6406;59.312;18.058;2024-03-02T07:35:12;4.40;99.90
12684;DHT22;6406;59.312;18.058;2024-03-02T07:37:40;4.50;99.90
12684;DHT22;6406;59.312;18.058;2024-03-02T07:40:09;4.60;99.90
12684;DHT22;6406;59.312;18.058;2024-03-02T07:42:37;4.60;99.90
12684;DHT22;6406;59.312;18.058;2024-03-02T07:45:07;4.70;99.90
12684;DHT22;6406;59.312;18.058;2024-03-02T07:47:35;4.80;99.90
12684;DHT22;6406;59.312;18.058;2024-03-02T07:50:02;4.80;99.90
12684;DHT22;6406;59.312;18.058;2024-03-02T07:52:32;4.90;99.90
12684;DHT22;6406;59.312;18.058;2024-03-02T07:54:59;4.90;99.90
12684;DHT22;6406;59.312;18.058;2024-03-02T07:57:26;5.00;99.90
12684;DHT22;6406;59.312;18.058;2024-03-02T07:59:54;5.00;99.90
12684;DHT22;6406;59.312;18.058;2024-03-02T08:02:22;5.10;99.90
12684;DHT22;6406;59.312;18.058;2024-03-02T08:04:49;5.10;99.90
12684;DHT22;6406;59.312;18.058;2024-03-02T08:07:17;5.20;99.90
12684;DHT22;6406;59.312;18.058;2024-03-02T08:09:44;5.20;99.90
12684;DHT22;6406;59.312;18.058;2024-03-02T08:12:11;5.20;99.90
12684;DHT22;6406;59.312;18.058;2024-03-02T08:14:38;5.20;99.90
12684;DHT22;6406;59.312;18.058;2024-03-02T08:17:06;5.30;99.90
12684;DHT22;6406;59.312;18.058;2024-03-02T08:19:37;5.30;99.90
12684;DHT22;6406;59.312;18.058;2024-03-02T08:22:04;5.30;99.00
12684;DHT22;6406;59.312;18.058;2024-03-02T08:24:32;5.30;97.50
12684;DHT22;6406;59.312;18.058;2024-03-02T08:27:00;6.10;94.30
12684;DHT22;6406;59.312;18.058;2024-03-02T08:29:27;5.30;90.20
12684;DHT22;6406;59.312;18.058;2024-03-02T08:31:55;5.30;96.80
12684;DHT22;6406;59.312;18.058;2024-03-02T08:34:22;5.80;93.10
12684;DHT22;6406;59.312;18.058;2024-03-02T08:36:50;5.40;93.00
12684;DHT22;6406;59.312;18.058;2024-03-02T08:39:18;5.40;91.50
12684;DHT22;6406;59.312;18.058;2024-03-02T08:41:46;5.40;76.10
12684;DHT22;6406;59.312;18.058;2024-03-02T08:44:14;5.40;74.80
12684;DHT22;6406;59.312;18.058;2024-03-02T08:46:41;5.40;74.00
12684;DHT22;6406;59.312;18.058;2024-03-02T08:49:09;5.40;74.80
12684;DHT22;6406;59.312;18.058;2024-03-02T08:51:36;5.30;75.70
12684;DHT22;6406;59.312;18.058;2024-03-02T08:54:05;5.40;68.90
12684;DHT22;6406;59.312;18.058;2024-03-02T08:56:32;5.40;64.30
12684;DHT22;6406;59.312;18.058;2024-03-02T08:59:00;5.40;63.80
12684;DHT22;6406;59.312;18.058;2024-03-02T09:01:27;5.40;49.60
12684;DHT22;6406;59.312;18.058;2024-03-02T09:03:54;5.40;43.50
12684;DHT22;6406;59.312;18.058;2024-03-02T09:06:22;5.40;46.80
12684;DHT22;6406;59.312;18.058;2024-03-02T09:08:49;5.50;35.60
12684;DHT22;6406;59.312;18.058;2024-03-02T09:11:19;5.50;31.20
12684;DHT22;6406;59.312;18.058;2024-03-02T09:13:46;5.40;23.80
12684;DHT22;6406;59.312;18.058;2024-03-02T09:16:13;5.40;26.30
12684;DHT22;6406;59.312;18.058;2024-03-02T09:18:40;5.50;29.40
12684;DHT22;6406;59.312;18.058;2024-03-02T09:21:08;5.50;21.20
12684;DHT22;6406;59.312;18.058;2024-03-02T09:23:35;5.60;13.90
12684;DHT22;6406;59.312;18.058;2024-03-02T09:26:04;5.50;15.10
12684;DHT22;6406;59.312;18.058;2024-03-02T09:28:33;5.60;13.20
12684;DHT22;6406;59.312;18.058;2024-03-02T09:31:01;5.80;5.10
12684;DHT22;6406;59.312;18.058;2024-03-02T09:33:28;5.80;1.00
12684;DHT22;6406;59.312;18.058;2024-03-02T09:35:55;6.00;1.00
12684;DHT22;6406;59.312;18.058;2024-03-02T09:38:22;5.90;1.00
12684;DHT22;6406;59.312;18.058;2024-03-02T09:40:50;6.10;1.00
12684;DHT22;6406;59.312;18.058;2024-03-02T09:43:17;6.10;1.00
12684;DHT22;6406;59.312;18.058;2024-03-02T09:45:46;6.10;1.00
12684;DHT22;6406;59.312;18.058;2024-03-02T09:48:13;6.00;1.00
12684;DHT22;6406;59.312;18.058;2024-03-02T09:50:44;6.00;1.00
12684;DHT22;6406;59.312;18.058;2024-03-02T09:53:12;6.40;1.00
12684;DHT22;6406;59.312;18.058;2024-03-02T09:55:39;6.20;1.00
12684;DHT22;6406;59.312;18.058;2024-03-02T09:58:09;6.10;1.00
12684;DHT22;6406;59.312;18.058;2024-03-02T10:00:37;6.00;1.00
12684;DHT22;6406;59.312;18.058;2024-03-02T10:03:05;6.00;1.00
12684;DHT22;6406;59.312;18.058;2024-03-02T10:05:38;6.10;1.00
12684;DHT22;6406;59.312;18.058;2024-03-02T10:08:05;6.20;1.00
12684;DHT22;6406;59.312;18.058;2024-03-02T10:10:37;6.40;1.00
12684;DHT22;6406;59.312;18.058;2024-03-02T10:13:08;6.30;1.00
12684;DHT22;6406;59.312;18.058;2024-03-02T10:15:36;6.20;1.00
12684;DHT22;6406;59.312;18.058;2024-03-02T10:18:05;6.30;1.00
12684;DHT22;6406;59.312;18.058;2024-03-02T10:20:35;6.20;1.00
12684;DHT22;6406;59.312;18.058;2024-03-02T10:23:10;6.20;1.00
12684;DHT22;6406;59.312;18.058;2024-03-02T10:25:38;6.10;1.00
12684;DHT22;6406;59.312;18.058;2024-03-02T10:28:06;6.10;1.00
12684;DHT22;6406;59.312;18.058;2024-03-02T10:30:33;6.20;1.00
12684;DHT22;6406;59.312;18.058;2024-03-02T10:33:01;6.10;1.00
12684;DHT22;6406;59.312;18.058;2024-03-02T10:35:31;6.00;1.00
12684;DHT22;6406;59.312;18.058;2024-03-02T10:37:59;6.00;1.00
12684;DHT22;6406;59.312;18.058;2024-03-02T10:40:27;6.10;1.00
12684;DHT22;6406;59.312;18.058;2024-03-02T10:42:54;6.10;1.00
12684;DHT22;6406;59.312;18.058;2024-03-02T10:45:23;5.90;1.00
12684;DHT22;6406;59.312;18.058;2024-03-02T10:47:51;6.10;1.00
12684;DHT22;6406;59.312;18.058;2024-03-02T10:50:18;6.10;1.00
12684;DHT22;6406;59.312;18.058;2024-03-02T10:52:47;6.00;1.00
12684;DHT22;6406;59.312;18.058;2024-03-02T10:55:14;6.00;1.00
12684;DHT22;6406;59.312;18.058;2024-03-02T10:57:45;6.00;1.00
12684;DHT22;6406;59.312;18.058;2024-03-02T11:00:18;6.10;1.00
12684;DHT22;6406;59.312;18.058;2024-03-02T11:02:52;6.10;1.00
12684;DHT22;6406;59.312;18.058;2024-03-02T11:05:26;6.10;1.00
12684;DHT22;6406;59.312;18.058;2024-03-02T11:08:00;6.00;1.00
12684;DHT22;6406;59.312;18.058;2024-03-02T11:10:34;6.00;1.00
12684;DHT22;6406;59.312;18.058;2024-03-02T11:13:05;6.10;1.00
12684;DHT22;6406;59.312;18.058;2024-03-02T11:15:34;6.10;1.00
12684;DHT22;6406;59.312;18.058;2024-03-02T11:18:04;6.10;1.00
12684;DHT22;6406;59.312;18.058;2024-03-02T11:20:36;6.10;1.00
12684;DHT22;6406;59.312;18.058;2024-03-02T11:23:09;6.10;1.00
12684;DHT22;6406;59.312;18.058;2024-03-02T11:25:36;6.10;1.00
12684;DHT22;6406;59.312;18.058;2024-03-02T11:28:06;6.20;1.00
12684;DHT22;6406;59.312;18.058;2024-03-02T11:30:53;4.30;1.00
12684;DHT22;6406;59.312;18.058;2024-03-02T11:33:24;6.20;1.00
12684;DHT22;6406;59.312;18.058;2024-03-02T11:35:56;6.40;1.00
12684;DHT22;6406;59.312;18.058;2024-03-02T11:38:30;6.20;1.00
12684;DHT22;6406;59.312;18.058;2024-03-02T11:40:59;6.30;1.00
12684;DHT22;6406;59.312;18.058;2024-03-02T11:43:28;6.30;1.00
12684;DHT22;6406;59.312;18.058;2024-03-02T11:45:59;6.40;1.00
12684;DHT22;6406;59.312;18.058;2024-03-02T11:48:26;6.40;1.00
12684;DHT22;6406;59.312;18.058;2024-03-02T11:50:58;6.50;1.00
12684;DHT22;6406;59.312;18.058;2024-03-02T11:53:26;6.20;1.00
12684;DHT22;6406;59.312;18.058;2024-03-02T11:55:56;6.10;1.00
12684;DHT22;6406;59.312;18.058;2024-03-02T11:58:24;6.10;1.00
12684;DHT22;6406;59.312;18.058;2024-03-02T12:00:52;6.20;1.00
12684;DHT22;6406;59.312;18.058;2024-03-02T12:03:22;6.20;1.00
12684;DHT22;6406;59.312;18.058;2024-03-02T12:05:52;6.10;1.00
12684;DHT22;6406;59.312;18.058;2024-03-02T12:08:20;6.10;1.00
12684;DHT22;6406;59.312;18.058;2024-03-02T12:11:01;6.10;1.00
12684;DHT22;6406;59.312;18.058;2024-03-02T12:13:28;6.20;1.00
12684;DHT22;6406;59.312;18.058;2024-03-02T12:15:56;6.10;1.00
12684;DHT22;6406;59.312;18.058;2024-03-02T12:18:24;6.10;1.00
12684;DHT22;6406;59.312;18.058;2024-03-02T12:20:52;6.00;1.00
12684;DHT22;6406;59.312;18.058;2024-03-02T12:23:23;6.00;1.00
12684;DHT22;6406;59.312;18.058;2024-03-02T12:25:50;6.00;1.00
12684;DHT22;6406;59.312;18.058;2024-03-02T12:28:19;5.90;1.00
12684;DHT22;6406;59.312;18.058;2024-03-02T12:30:47;6.00;1.00
12684;DHT22;6406;59.312;18.058;2024-03-02T12:33:14;6.00;1.00
12684;DHT22;6406;59.312;18.058;2024-03-02T12:35:41;6.00;1.00
12684;DHT22;6406;59.312;18.058;2024-03-02T12:38:09;6.10;1.00
12684;DHT22;6406;59.312;18.058;2024-03-02T12:40:38;5.90;1.00
12684;DHT22;6406;59.312;18.058;2024-03-02T12:43:05;5.80;1.00
12684;DHT22;6406;59.312;18.058;2024-03-02T12:45:35;5.80;1.00
12684;DHT22;6406;59.312;18.058;2024-03-02T12:48:04;5.80;1.00
12684;DHT22;6406;59.312;18.058;2024-03-02T12:50:32;5.80;1.00
12684;DHT22;6406;59.312;18.058;2024-03-02T12:53:00;5.80;1.00
12684;DHT22;6406;59.312;18.058;2024-03-02T12:55:27;5.80;1.00
12684;DHT22;6406;59.312;18.058;2024-03-02T12:57:54;6.00;1.00
12684;DHT22;6406;59.312;18.058;2024-03-02T13:00:22;5.90;1.00
12684;DHT22;6406;59.312;18.058;2024-03-02T13:02:51;7.40;1.00
12684;DHT22;6406;59.312;18.058;2024-03-02T13:05:18;5.20;1.00
12684;DHT22;6406;59.312;18.058;2024-03-02T13:07:47;5.60;1.00
12684;DHT22;6406;59.312;18.058;2024-03-02T13:10:15;5.70;1.00
12684;DHT22;6406;59.312;18.058;2024-03-02T13:12:42;5.90;1.00
12684;DHT22;6406;59.312;18.058;2024-03-02T13:15:10;6.00;1.00
12684;DHT22;6406;59.312;18.058;2024-03-02T13:17:39;5.70;1.00
12684;DHT22;6406;59.312;18.058;2024-03-02T13:20:08;5.80;1.00
12684;DHT22;6406;59.312;18.058;2024-03-02T13:22:36;5.90;1.00
12684;DHT22;6406;59.312;18.058;2024-03-02T13:25:04;5.90;1.00
12684;DHT22;6406;59.312;18.058;2024-03-02T13:27:32;5.90;1.00
12684;DHT22;6406;59.312;18.058;2024-03-02T13:29:59;3.70;1.00
12684;DHT22;6406;59.312;18.058;2024-03-02T13:32:26;4.50;1.00
12684;DHT22;6406;59.312;18.058;2024-03-02T13:34:54;5.70;1.00
12684;DHT22;6406;59.312;18.058;2024-03-02T13:37:22;5.80;1.00
12684;DHT22;6406;59.312;18.058;2024-03-02T13:39:50;5.70;1.00
12684;DHT22;6406;59.312;18.058;2024-03-02T13:42:17;5.70;1.00
12684;DHT22;6406;59.312;18.058;2024-03-02T13:44:45;5.80;1.00
12684;DHT22;6406;59.312;18.058;2024-03-02T13:47:15;5.90;1.00
12684;DHT22;6406;59.312;18.058;2024-03-02T13:49:43;5.80;1.00
12684;DHT22;6406;59.312;18.058;2024-03-02T13:52:12;5.80;1.00
12684;DHT22;6406;59.312;18.058;2024-03-02T13:54:42;5.80;1.00
12684;DHT22;6406;59.312;18.058;2024-03-02T13:57:10;5.80;1.00
12684;DHT22;6406;59.312;18.058;2024-03-02T13:59:39;5.30;1.00
12684;DHT22;6406;59.312;18.058;2024-03-02T14:02:06;5.70;1.00
12684;DHT22;6406;59.312;18.058;2024-03-02T14:04:34;5.50;1.00
12684;DHT22;6406;59.312;18.058;2024-03-02T14:07:02;5.60;1.00
12684;DHT22;6406;59.312;18.058;2024-03-02T14:09:29;5.60;1.00
12684;DHT22;6406;59.312;18.058;2024-03-02T14:11:58;5.60;1.00
12684;DHT22;6406;59.312;18.058;2024-03-02T14:14:26;5.70;1.00
12684;DHT22;6406;59.312;18.058;2024-03-02T14:16:54;5.70;1.00
12684;DHT22;6406;59.312;18.058;2024-03-02T14:19:21;5.70;1.00
12684;DHT22;6406;59.312;18.058;2024-03-02T14:21:49;5.70;1.00
12684;DHT22;6406;59.312;18.058;2024-03-02T14:24:16;5.40;1.00
12684;DHT22;6406;59.312;18.058;2024-03-02T14:26:43;5.70;1.00
12684;DHT22;6406;59.312;18.058;2024-03-02T14:29:12;5.80;1.00
12684;DHT22;6406;59.312;18.058;2024-03-02T14:31:40;5.60;1.00
12684;DHT22;6406;59.312;18.058;2024-03-02T14:34:07;5.60;1.00
12684;DHT22;6406;59.312;18.058;2024-03-02T14:36:34;5.50;1.00
12684;DHT22;6406;59.312;18.058;2024-03-02T14:39:02;5.50;1.00
12684;DHT22;6406;59.312;18.058;2024-03-02T14:41:30;5.50;1.00
12684;DHT22;6406;59.312;18.058;2024-03-02T14:43:57;5.50;1.00
12684;DHT22;6406;59.312;18.058;2024-03-02T14:46:25;5.60;1.00
12684;DHT22;6406;59.312;18.058;2024-03-02T14:48:53;5.50;1.00
12684;DHT22;6406;59.312;18.058;2024-03-02T14:51:20;5.30;1.00
12684;DHT22;6406;59.312;18.058;2024-03-02T14:53:47;5.60;1.00
12684;DHT22;6406;59.312;18.058;2024-03-02T14:56:15;5.60;1.00
12684;DHT22;6406;59.312;18.058;2024-03-02T14:58:44;5.60;1.00
12684;DHT22;6406;59.312;18.058;2024-03-02T15:01:12;5.50;1.00
12684;DHT22;6406;59.312;18.058;2024-03-02T15:03:41;5.40;1.00
12684;DHT22;6406;59.312;18.058;2024-03-02T15:06:08;5.50;1.00
12684;DHT22;6406;59.312;18.058;2024-03-02T15:08:36;3.70;1.00
12684;DHT22;6406;59.312;18.058;2024-03-02T15:11:04;5.50;1.00
12684;DHT22;6406;59.312;18.058;2024-03-02T15:13:31;5.60;1.00
12684;DHT22;6406;59.312;18.058;2024-03-02T15:15:59;5.50;1.00
12684;DHT22;6406;59.312;18.058;2024-03-02T15:18:27;5.50;1.00
12684;DHT22;6406;59.312;18.058;2024-03-02T15:20:55;5.50;1.00
12684;DHT22;6406;59.312;18.058;2024-03-02T15:23:23;5.50;1.00
12684;DHT22;6406;59.312;18.058;2024-03-02T15:25:50;5.20;1.00
12684;DHT22;6406;59.312;18.058;2024-03-02T15:28:17;5.60;1.00
12684;DHT22;6406;59.312;18.058;2024-03-02T15:30:45;5.50;1.00
12684;DHT22;6406;59.312;18.058;2024-03-02T15:33:12;5.40;1.00
12684;DHT22;6406;59.312;18.058;2024-03-02T15:35:39;5.30;1.00
12684;DHT22;6406;59.312;18.058;2024-03-02T15:38:08;5.40;1.00
12684;DHT22;6406;59.312;18.058;2024-03-02T15:40:38;5.30;1.00
12684;DHT22;6406;59.312;18.058;2024-03-02T15:43:05;5.40;1.00
12684;DHT22;6406;59.312;18.058;2024-03-02T15:45:32;5.30;1.00
12684;DHT22;6406;59.312;18.058;2024-03-02T15:48:00;5.30;1.00
12684;DHT22;6406;59.312;18.058;2024-03-02T15:50:27;5.30;1.00
12684;DHT22;6406;59.312;18.058;2024-03-02T15:52:54;5.20;1.00
12684;DHT22;6406;59.312;18.058;2024-03-02T15:55:28;5.30;1.00
12684;DHT22;6406;59.312;18.058;2024-03-02T15:57:56;5.30;1.00
12684;DHT22;6406;59.312;18.058;2024-03-02T16:00:24;5.20;1.00